Time;durP1;ratioP1;P1;durP2;ratioP2;P2;SDS_P1;SDS_P2;PMS_P1;PMS_P2;Temp;Humidity;BMP_temperature;BMP_pressure;BME280_temperature;BME280_humidity;BME280_pressure;Samples;Min_cycle;Max_cycle;Signal;HPM_P1;HPM_P2
2021/06/17 00:02:14;;;;;;;4.33;3.87;;;;;;;;;;5117239;28;20451;-70
2021/06/17 00:04:43;;;;;;;6.13;4.10;;;;;;;;;;5117221;28;20848;-70
2021/06/17 00:07:11;;;;;;;6.70;3.90;;;;;;;;;;5115189;28;20450;-70
2021/06/17 00:09:42;;;;;;;5.93;4.17;;;;;;;;;;5116903;28;20490;-70
2021/06/17 00:12:11;;;;;;;5.30;3.40;;;;;;;;;;5117417;28;20439;-70
2021/06/17 00:14:39;;;;;;;5.63;3.80;;;;;;;;;;5116850;28;20785;-69
2021/06/17 00:17:08;;;;;;;4.80;3.40;;;;;;;;;;5117454;28;20447;-70
2021/06/17 00:19:38;;;;;;;6.33;4.13;;;;;;;;;;5116719;28;20520;-70
2021/06/17 00:22:07;;;;;;;6.30;3.73;;;;;;;;;;5117391;28;20719;-70
2021/06/17 00:24:35;;;;;;;6.73;3.80;;;;;;;;;;5117472;28;20462;-70
2021/06/17 00:27:05;;;;;;;5.97;4.60;;;;;;;;;;5116849;28;20505;-70
2021/06/17 00:29:35;;;;;;;3.67;3.10;;;;;;;;;;5115886;28;20552;-70
2021/06/17 00:32:03;;;;;;;4.97;3.63;;;;;;;;;;5116609;28;20469;-70
2021/06/17 00:34:33;;;;;;;6.10;3.57;;;;;;;;;;5116831;28;20554;-70
2021/06/17 00:37:07;;;;;;;4.03;3.20;;;;;;;;;;5116096;28;20431;-70
2021/06/17 00:39:37;;;;;;;4.63;3.33;;;;;;;;;;5115853;28;20450;-73
2021/06/17 00:42:06;;;;;;;5.33;3.47;;;;;;;;;;5116600;28;20750;-70
2021/06/17 00:44:36;;;;;;;4.10;3.40;;;;;;;;;;5116749;28;20458;-70
2021/06/17 00:47:04;;;;;;;4.20;3.30;;;;;;;;;;5116626;28;20689;-70
2021/06/17 00:49:33;;;;;;;3.60;2.73;;;;;;;;;;5114943;28;20576;-70
2021/06/17 00:52:06;;;;;;;5.17;3.23;;;;;;;;;;5116663;28;20506;-70
2021/06/17 00:54:35;;;;;;;3.50;2.77;;;;;;;;;;5116626;28;20462;-70
2021/06/17 00:57:05;;;;;;;5.10;2.80;;;;;;;;;;5115902;28;20442;-70
2021/06/17 00:59:34;;;;;;;5.63;3.57;;;;;;;;;;5115974;28;20446;-70
2021/06/17 01:02:03;;;;;;;5.63;3.30;;;;;;;;;;5116621;28;20779;-70
2021/06/17 01:04:32;;;;;;;6.60;3.30;;;;;;;;;;5116170;28;20461;-70
2021/06/17 01:07:00;;;;;;;6.40;3.10;;;;;;;;;;5116806;28;20461;-70
2021/06/17 01:09:38;;;;;;;5.00;3.30;;;;;;;;;;5116062;28;20761;-70
2021/06/17 01:12:11;;;;;;;5.63;3.50;;;;;;;;;;5116146;28;20458;-70
2021/06/17 01:14:43;;;;;;;3.90;3.17;;;;;;;;;;5116241;28;20466;-69
2021/06/17 01:17:14;;;;;;;4.10;3.20;;;;;;;;;;5116566;28;20443;-70
2021/06/17 01:19:52;;;;;;;5.87;2.97;;;;;;;;;;5116822;28;20545;-70
2021/06/17 01:22:29;;;;;;;9.10;3.40;;;;;;;;;;5116578;28;20482;-70
2021/06/17 01:25:15;;;;;;;3.87;3.07;;;;;;;;;;5117072;28;20515;-70
2021/06/17 01:28:04;;;;;;;8.67;3.30;;;;;;;;;;5115984;28;20730;-70
2021/06/17 01:30:36;;;;;;;5.53;3.47;;;;;;;;;;5116213;28;20491;-70
2021/06/17 01:33:05;;;;;;;4.13;3.07;;;;;;;;;;5116364;28;20539;-70
2021/06/17 01:35:36;;;;;;;6.23;3.23;;;;;;;;;;5115617;28;20455;-70
2021/06/17 01:38:05;;;;;;;4.23;3.20;;;;;;;;;;5116357;28;20457;-70
2021/06/17 01:40:33;;;;;;;4.90;3.13;;;;;;;;;;5116794;28;20729;-70
2021/06/17 01:43:02;;;;;;;5.00;2.90;;;;;;;;;;5116196;28;20472;-70
2021/06/17 01:45:31;;;;;;;4.50;3.43;;;;;;;;;;5117063;28;20826;-70
2021/06/17 01:48:02;;;;;;;7.47;3.40;;;;;;;;;;5116548;28;20451;-70
2021/06/17 01:50:31;;;;;;;4.50;3.73;;;;;;;;;;5118937;28;20556;-70
2021/06/17 01:53:00;;;;;;;4.47;3.17;;;;;;;;;;5119831;28;20533;-70
2021/06/17 01:55:30;;;;;;;4.87;3.40;;;;;;;;;;5119739;28;20465;-69
2021/06/17 01:58:02;;;;;;;3.60;3.20;;;;;;;;;;5119294;28;20443;-70
2021/06/17 02:00:30;;;;;;;4.50;2.57;;;;;;;;;;5119375;28;20477;-69
2021/06/17 02:03:00;;;;;;;5.70;3.40;;;;;;;;;;5120320;28;20450;-70
2021/06/17 02:05:40;;;;;;;6.43;3.00;;;;;;;;;;5120109;28;20498;-70
2021/06/17 02:08:09;;;;;;;5.50;3.47;;;;;;;;;;5119638;28;20882;-70
2021/06/17 02:10:37;;;;;;;3.90;2.70;;;;;;;;;;5119348;28;20513;-70
2021/06/17 02:13:23;;;;;;;5.10;3.60;;;;;;;;;;5119408;28;20454;-69
2021/06/17 02:15:52;;;;;;;4.93;2.87;;;;;;;;;;5120297;28;20459;-69
2021/06/17 02:18:24;;;;;;;3.80;3.03;;;;;;;;;;5120125;28;20446;-70
2021/06/17 02:20:52;;;;;;;5.30;3.47;;;;;;;;;;5119986;28;20547;-70
2021/06/17 02:23:20;;;;;;;3.43;2.90;;;;;;;;;;5119959;28;20519;-71
2021/06/17 02:25:51;;;;;;;7.23;3.33;;;;;;;;;;5119575;28;20487;-70
2021/06/17 02:28:22;;;;;;;5.67;3.13;;;;;;;;;;5119520;28;20453;-71
2021/06/17 02:30:51;;;;;;;5.40;2.87;;;;;;;;;;5119019;28;20479;-70
2021/06/17 02:33:20;;;;;;;4.70;3.20;;;;;;;;;;5118748;28;20454;-70
2021/06/17 02:38:54;;;;;;;6.10;3.53;;;;;;;;;;5118750;28;20402;-70
2021/06/17 02:41:24;;;;;;;5.27;2.63;;;;;;;;;;5119115;28;20466;-69
2021/06/17 02:43:55;;;;;;;7.67;3.60;;;;;;;;;;5118769;28;20870;-70
2021/06/17 02:46:23;;;;;;;4.87;2.53;;;;;;;;;;5118661;28;20658;-70
2021/06/17 02:48:51;;;;;;;4.10;3.23;;;;;;;;;;5118769;28;20766;-70
2021/06/17 02:51:19;;;;;;;4.27;2.53;;;;;;;;;;5119072;28;20479;-70
2021/06/17 02:53:48;;;;;;;5.10;2.80;;;;;;;;;;5118554;28;20489;-70
2021/06/17 02:56:21;;;;;;;5.10;3.20;;;;;;;;;;5118264;28;20450;-69
2021/06/17 02:58:56;;;;;;;5.00;2.50;;;;;;;;;;5118516;28;20454;-70
2021/06/17 03:01:27;;;;;;;6.00;3.07;;;;;;;;;;5117983;28;20453;-70
2021/06/17 03:03:56;;;;;;;4.90;3.10;;;;;;;;;;5118658;28;20451;-70
2021/06/17 03:06:26;;;;;;;3.30;2.67;;;;;;;;;;5118611;28;20457;-70
2021/06/17 03:08:57;;;;;;;3.87;2.50;;;;;;;;;;5117843;28;20561;-70
2021/06/17 03:11:29;;;;;;;3.40;2.90;;;;;;;;;;5118958;28;20451;-70
2021/06/17 03:13:58;;;;;;;5.03;3.43;;;;;;;;;;5118064;28;20459;-70
2021/06/17 03:16:28;;;;;;;8.27;3.10;;;;;;;;;;5118224;28;20462;-69
2021/06/17 03:18:59;;;;;;;5.03;3.47;;;;;;;;;;5118204;28;20523;-70
2021/06/17 03:21:29;;;;;;;3.60;2.80;;;;;;;;;;5113562;28;20848;-70
2021/06/17 03:23:58;;;;;;;8.30;2.97;;;;;;;;;;5111793;28;20451;-72
2021/06/17 03:26:29;;;;;;;5.17;3.23;;;;;;;;;;5118433;28;20453;-70
2021/06/17 03:29:09;;;;;;;5.10;2.70;;;;;;;;;;5118113;28;20467;-70
2021/06/17 03:31:39;;;;;;;6.43;3.60;;;;;;;;;;5117199;28;20447;-70
2021/06/17 03:34:08;;;;;;;4.40;2.93;;;;;;;;;;5117650;28;20462;-70
2021/06/17 03:36:36;;;;;;;4.97;3.13;;;;;;;;;;5118167;28;20458;-70
2021/06/17 03:39:08;;;;;;;7.47;3.40;;;;;;;;;;5117507;28;20807;-70
2021/06/17 03:41:37;;;;;;;4.47;3.10;;;;;;;;;;5117769;28;20443;-70
2021/06/17 03:44:06;;;;;;;9.00;3.60;;;;;;;;;;5118170;28;20459;-69
2021/06/17 03:46:34;;;;;;;9.60;3.13;;;;;;;;;;5117927;28;20443;-69
2021/06/17 03:49:02;;;;;;;5.10;3.30;;;;;;;;;;5117840;28;20462;-69
2021/06/17 03:51:30;;;;;;;4.57;3.60;;;;;;;;;;5117254;28;20458;-69
2021/06/17 03:53:58;;;;;;;5.23;3.03;;;;;;;;;;5118087;28;20459;-70
2021/06/17 03:56:26;;;;;;;4.53;3.27;;;;;;;;;;5114320;28;20863;-70
2021/06/17 03:58:56;;;;;;;4.10;3.03;;;;;;;;;;5105451;28;20466;-70
2021/06/17 04:01:24;;;;;;;6.40;4.17;;;;;;;;;;5117663;28;20446;-70
2021/06/17 04:03:52;;;;;;;5.13;3.60;;;;;;;;;;5102809;28;20456;-70
2021/06/17 04:06:21;;;;;;;3.40;2.70;;;;;;;;;;5097423;28;20462;-69
2021/06/17 04:08:50;;;;;;;5.77;3.60;;;;;;;;;;5096926;28;20483;-69
2021/06/17 04:11:20;;;;;;;6.20;3.70;;;;;;;;;;5097406;28;20732;-72
2021/06/17 04:13:50;;;;;;;6.07;3.73;;;;;;;;;;5096945;28;20566;-69
2021/06/17 04:16:21;;;;;;;5.33;3.00;;;;;;;;;;5096628;28;20520;-69
2021/06/17 04:18:49;;;;;;;5.70;3.50;;;;;;;;;;5096876;28;20463;-69
2021/06/17 04:21:18;;;;;;;3.80;3.33;;;;;;;;;;5096777;28;20513;-69
2021/06/17 04:23:48;;;;;;;6.63;4.47;;;;;;;;;;5096636;28;20451;-69
2021/06/17 04:26:19;;;;;;;5.03;3.13;;;;;;;;;;5096520;28;20456;-69
2021/06/17 04:28:47;;;;;;;4.03;3.30;;;;;;;;;;5095938;28;20456;-69
2021/06/17 04:31:15;;;;;;;8.40;3.77;;;;;;;;;;5095985;28;20763;-70
2021/06/17 04:33:45;;;;;;;6.80;3.83;;;;;;;;;;5096560;28;20451;-70
2021/06/17 04:36:42;;;;;;;4.17;3.40;;;;;;;;;;5096702;28;20459;-70
2021/06/17 04:39:10;;;;;;;4.10;3.57;;;;;;;;;;5114546;28;20454;-70
2021/06/17 04:41:38;;;;;;;6.03;3.50;;;;;;;;;;5116029;28;20435;-71
2021/06/17 04:44:07;;;;;;;5.20;4.03;;;;;;;;;;5116502;28;20454;-71
2021/06/17 04:46:35;;;;;;;3.70;3.33;;;;;;;;;;5116271;28;20813;-71
2021/06/17 04:49:12;;;;;;;4.13;3.20;;;;;;;;;;5116899;28;20481;-71
2021/06/17 04:51:41;;;;;;;4.80;3.77;;;;;;;;;;5115008;28;20483;-71
2021/06/17 04:54:09;;;;;;;4.10;3.17;;;;;;;;;;5114757;28;20455;-70
2021/06/17 04:56:37;;;;;;;4.80;3.90;;;;;;;;;;5116340;28;20446;-70
2021/06/17 04:59:05;;;;;;;5.10;4.20;;;;;;;;;;5116462;28;20489;-69
2021/06/17 05:01:33;;;;;;;5.63;3.40;;;;;;;;;;5101943;28;20879;-69
2021/06/17 05:04:01;;;;;;;8.13;4.43;;;;;;;;;;5095876;28;20462;-70
2021/06/17 05:06:35;;;;;;;4.70;4.20;;;;;;;;;;5095765;28;20467;-71
2021/06/17 05:11:49;;;;;;;5.10;4.03;;;;;;;;;;5095596;28;20423;-71
2021/06/17 05:14:17;;;;;;;3.87;2.93;;;;;;;;;;5114747;28;20512;-71
2021/06/17 05:16:45;;;;;;;5.73;3.67;;;;;;;;;;5115441;28;20458;-71
2021/06/17 05:19:13;;;;;;;5.77;3.77;;;;;;;;;;5115482;28;20454;-71
2021/06/17 05:21:44;;;;;;;9.33;4.53;;;;;;;;;;5114167;28;20443;-71
2021/06/17 05:24:12;;;;;;;5.83;4.07;;;;;;;;;;5114925;28;20459;-71
2021/06/17 05:26:40;;;;;;;5.63;4.73;;;;;;;;;;5119385;28;20504;-71
2021/06/17 05:29:09;;;;;;;4.20;3.43;;;;;;;;;;5118272;28;20493;-71
2021/06/17 05:31:36;;;;;;;5.47;4.80;;;;;;;;;;5117639;28;20479;-71
2021/06/17 05:34:04;;;;;;;6.33;4.40;;;;;;;;;;5116957;28;20458;-71
2021/06/17 05:36:32;;;;;;;6.00;3.87;;;;;;;;;;5115550;28;20481;-71
2021/06/17 05:39:01;;;;;;;6.53;4.13;;;;;;;;;;5117521;28;20882;-69
2021/06/17 05:41:29;;;;;;;7.93;4.60;;;;;;;;;;5116685;28;20439;-70
2021/06/17 05:43:58;;;;;;;5.90;4.47;;;;;;;;;;5114216;28;20459;-71
2021/06/17 05:46:26;;;;;;;7.63;4.93;;;;;;;;;;5118681;28;20454;-71
2021/06/17 05:48:54;;;;;;;8.20;4.90;;;;;;;;;;5117011;28;20711;-70
2021/06/17 05:51:22;;;;;;;6.47;4.90;;;;;;;;;;5114715;28;20838;-70
2021/06/17 05:53:50;;;;;;;4.70;4.20;;;;;;;;;;5115202;28;20464;-70
2021/06/17 05:56:20;;;;;;;8.00;5.53;;;;;;;;;;5116157;28;20965;-70
2021/06/17 05:58:48;;;;;;;9.13;5.10;;;;;;;;;;5117373;28;20742;-70
2021/06/17 06:01:16;;;;;;;8.47;5.10;;;;;;;;;;5116767;28;20475;-71
2021/06/17 06:03:43;;;;;;;5.57;4.93;;;;;;;;;;5116867;28;20461;-71
2021/06/17 06:06:11;;;;;;;6.10;5.03;;;;;;;;;;5116320;28;20924;-71
2021/06/17 06:08:43;;;;;;;8.63;5.67;;;;;;;;;;5116504;28;20896;-71
2021/06/17 06:11:12;;;;;;;7.30;5.67;;;;;;;;;;5097184;28;21004;-71
2021/06/17 06:13:42;;;;;;;6.47;5.47;;;;;;;;;;5101002;27;21776;-71
2021/06/17 06:16:15;;;;;;;7.07;5.80;;;;;;;;;;5113473;28;20448;-70
2021/06/17 06:18:44;;;;;;;6.27;5.67;;;;;;;;;;5116459;28;20483;-71
2021/06/17 06:21:14;;;;;;;5.90;5.30;;;;;;;;;;5117963;28;20427;-71
2021/06/17 06:23:44;;;;;;;7.20;5.70;;;;;;;;;;5116884;28;20450;-70
2021/06/17 06:26:18;;;;;;;6.60;5.00;;;;;;;;;;5117858;28;20531;-71
2021/06/17 06:28:51;;;;;;;6.63;5.30;;;;;;;;;;5117489;28;20520;-71
2021/06/17 06:31:25;;;;;;;6.67;6.00;;;;;;;;;;5118169;28;20729;-70
2021/06/17 06:33:56;;;;;;;5.70;4.70;;;;;;;;;;5107224;28;20820;-71
2021/06/17 06:36:27;;;;;;;10.60;5.60;;;;;;;;;;5096229;28;20454;-71
2021/06/17 06:38:56;;;;;;;5.90;5.30;;;;;;;;;;5108506;28;21034;-71
2021/06/17 06:41:29;;;;;;;6.43;5.00;;;;;;;;;;5118364;28;20844;-72
2021/06/17 06:43:59;;;;;;;6.73;6.10;;;;;;;;;;5117725;28;20527;-71
2021/06/17 06:46:31;;;;;;;8.67;6.10;;;;;;;;;;5118592;28;20461;-72
2021/06/17 06:49:03;;;;;;;6.63;5.60;;;;;;;;;;5117253;28;20462;-72
2021/06/17 06:51:31;;;;;;;6.37;5.57;;;;;;;;;;5116336;28;20509;-72
2021/06/17 06:53:59;;;;;;;5.93;5.33;;;;;;;;;;5115438;28;20559;-72
2021/06/17 06:56:29;;;;;;;8.77;6.03;;;;;;;;;;5116999;28;20447;-72
2021/06/17 06:59:00;;;;;;;6.50;5.83;;;;;;;;;;5123447;27;20449;-72
2021/06/17 07:01:31;;;;;;;6.97;5.73;;;;;;;;;;5122290;27;20444;-73
2021/06/17 07:04:02;;;;;;;8.30;6.10;;;;;;;;;;5112829;28;20455;-73
2021/06/17 07:06:30;;;;;;;17.53;7.07;;;;;;;;;;5116534;28;20458;-72
2021/06/17 07:08:58;;;;;;;8.70;5.40;;;;;;;;;;5116753;28;20840;-72
2021/06/17 07:11:27;;;;;;;10.73;5.93;;;;;;;;;;5116693;28;20475;-72
2021/06/17 07:13:56;;;;;;;10.80;8.00;;;;;;;;;;5116944;28;20462;-72
2021/06/17 07:16:24;;;;;;;8.33;6.10;;;;;;;;;;5116046;28;20465;-72
2021/06/17 07:18:56;;;;;;;6.90;6.20;;;;;;;;;;5113253;28;20519;-72
2021/06/17 07:21:27;;;;;;;10.50;7.10;;;;;;;;;;5116677;28;20720;-73
2021/06/17 07:23:58;;;;;;;7.73;5.97;;;;;;;;;;5116326;28;20457;-72
2021/06/17 07:26:32;;;;;;;8.50;7.00;;;;;;;;;;5108431;28;20843;-72
2021/06/17 07:29:12;;;;;;;9.07;6.60;;;;;;;;;;5114651;28;20453;-72
2021/06/17 07:31:44;;;;;;;6.70;6.07;;;;;;;;;;5116038;28;20513;-71
2021/06/17 07:34:21;;;;;;;7.77;7.03;;;;;;;;;;5116761;28;20458;-72
2021/06/17 07:36:53;;;;;;;7.50;6.37;;;;;;;;;;5116406;28;20541;-72
2021/06/17 07:39:28;;;;;;;7.03;6.33;;;;;;;;;;5095800;28;20463;-72
2021/06/17 07:41:57;;;;;;;7.43;5.53;;;;;;;;;;5096679;28;20900;-71
2021/06/17 07:44:25;;;;;;;11.97;8.40;;;;;;;;;;5115436;28;20553;-71
2021/06/17 07:53:00;;;;;;;7.77;6.30;;;;;;;;;;5092581;28;20521;-73
2021/06/17 07:55:33;;;;;;;9.50;6.73;;;;;;;;;;5105722;28;20434;-71
2021/06/17 07:58:06;;;;;;;7.80;6.60;;;;;;;;;;5106906;28;20465;-72
2021/06/17 08:00:40;;;;;;;6.67;5.97;;;;;;;;;;5114751;28;20492;-71
2021/06/17 08:03:14;;;;;;;9.73;6.67;;;;;;;;;;5115247;28;20447;-72
2021/06/17 08:05:56;;;;;;;6.97;6.20;;;;;;;;;;5115655;28;20877;-71
2021/06/17 08:08:38;;;;;;;8.30;6.30;;;;;;;;;;5114296;28;20447;-72
2021/06/17 08:11:12;;;;;;;9.57;6.07;;;;;;;;;;5114729;28;20516;-71
2021/06/17 08:13:46;;;;;;;8.93;5.93;;;;;;;;;;5114266;28;20490;-71
2021/06/17 08:19:00;;;;;;;7.27;6.30;;;;;;;;;;5115813;28;20486;-71
2021/06/17 08:21:30;;;;;;;7.97;6.03;;;;;;;;;;5116589;28;20455;-70
2021/06/17 08:24:03;;;;;;;7.60;6.80;;;;;;;;;;5115842;28;20451;-71
2021/06/17 08:26:32;;;;;;;7.23;6.30;;;;;;;;;;5115873;28;20454;-71
2021/06/17 08:29:04;;;;;;;14.83;6.73;;;;;;;;;;5113149;28;20878;-71
2021/06/17 08:31:36;;;;;;;8.70;6.90;;;;;;;;;;5111978;28;20488;-72
2021/06/17 08:34:04;;;;;;;11.53;6.90;;;;;;;;;;5114146;28;20459;-72
2021/06/17 08:36:37;;;;;;;8.80;7.03;;;;;;;;;;5115242;28;20565;-72
2021/06/17 08:39:06;;;;;;;7.87;7.07;;;;;;;;;;5110112;28;20509;-72
2021/06/17 08:44:19;;;;;;;8.87;7.30;;;;;;;;;;5114581;28;20449;-72
2021/06/17 08:49:35;;;;;;;7.13;6.50;;;;;;;;;;5111934;27;20443;-72
2021/06/17 08:52:05;;;;;;;6.67;6.03;;;;;;;;;;5106310;28;20535;-71
2021/06/17 08:55:05;;;;;;;;;;;;;;;;;;;;;
2021/06/17 08:57:35;;;;;;;12.07;8.13;;;;;;;;;;5095630;28;20442;-71
2021/06/17 09:00:04;;;;;;;7.60;6.63;;;;;;;;;;5097062;28;20436;-71
2021/06/17 09:02:38;;;;;;;7.70;7.00;;;;;;;;;;5114017;28;20458;-72
2021/06/17 09:05:16;;;;;;;7.80;6.20;;;;;;;;;;5110816;28;20515;-71
2021/06/17 09:07:48;;;;;;;6.57;5.90;;;;;;;;;;5114928;28;20866;-72
2021/06/17 09:10:18;;;;;;;8.23;7.43;;;;;;;;;;5114184;28;20447;-71
2021/06/17 09:12:55;;;;;;;11.80;7.30;;;;;;;;;;5112070;28;20547;-72
2021/06/17 09:15:45;;;;;;;6.13;5.53;;;;;;;;;;5108297;28;20458;-72
2021/06/17 09:18:29;;;;;;;9.13;6.60;;;;;;;;;;5100234;28;20451;-71
2021/06/17 09:21:00;;;;;;;10.67;7.13;;;;;;;;;;5112030;28;20462;-72
2021/06/17 09:23:37;;;;;;;7.20;6.37;;;;;;;;;;5114565;28;20446;-72
2021/06/17 09:26:12;;;;;;;6.93;6.00;;;;;;;;;;5110105;28;20859;-72
2021/06/17 09:28:50;;;;;;;7.83;6.70;;;;;;;;;;5110009;28;20557;-72
2021/06/17 09:31:19;;;;;;;10.90;6.83;;;;;;;;;;5114651;28;20478;-72
2021/06/17 09:33:49;;;;;;;7.00;5.43;;;;;;;;;;5115353;28;20533;-70
2021/06/17 09:36:28;;;;;;;6.57;5.63;;;;;;;;;;5103408;28;20465;-72
2021/06/17 09:39:09;;;;;;;7.63;6.40;;;;;;;;;;5116635;28;20474;-72
2021/06/17 09:41:41;;;;;;;8.23;7.30;;;;;;;;;;5097794;28;20448;-71
2021/06/17 09:44:30;;;;;;;6.03;5.40;;;;;;;;;;5101219;28;20450;-71
2021/06/17 09:47:15;;;;;;;6.67;5.83;;;;;;;;;;5116657;28;20924;-70
2021/06/17 09:49:52;;;;;;;7.20;6.00;;;;;;;;;;5094602;28;20455;-72
2021/06/17 09:52:24;;;;;;;7.07;5.60;;;;;;;;;;5094274;28;20476;-72
2021/06/17 09:54:58;;;;;;;7.73;6.30;;;;;;;;;;5094755;28;21156;-71
2021/06/17 09:57:34;;;;;;;6.57;5.50;;;;;;;;;;5093261;28;20453;-72
2021/06/17 10:00:10;;;;;;;7.70;6.47;;;;;;;;;;5110330;28;20896;-72
2021/06/17 10:02:40;;;;;;;7.80;7.10;;;;;;;;;;5109979;28;20465;-72
2021/06/17 10:05:19;;;;;;;7.03;6.40;;;;;;;;;;5113333;28;20939;-73
2021/06/17 10:07:49;;;;;;;8.00;6.97;;;;;;;;;;5107643;28;20532;-72
2021/06/17 10:10:21;;;;;;;8.50;6.40;;;;;;;;;;5091953;28;20440;-72
2021/06/17 10:12:52;;;;;;;6.63;6.00;;;;;;;;;;5095682;28;20494;-72
2021/06/17 10:15:21;;;;;;;8.70;7.57;;;;;;;;;;5113213;28;20453;-73
2021/06/17 10:17:53;;;;;;;6.60;5.93;;;;;;;;;;5116984;28;20450;-73
2021/06/17 10:20:23;;;;;;;8.20;6.10;;;;;;;;;;5117101;28;20665;-72
2021/06/17 10:22:52;;;;;;;9.43;6.50;;;;;;;;;;5098571;28;20562;-72
2021/06/17 10:25:26;;;;;;;7.53;6.77;;;;;;;;;;5115404;28;20461;-72
2021/06/17 10:27:57;;;;;;;19.13;7.30;;;;;;;;;;5116297;28;21989;-72
2021/06/17 10:30:40;;;;;;;8.60;7.53;;;;;;;;;;5115502;28;20464;-72
2021/06/17 10:33:09;;;;;;;7.30;6.60;;;;;;;;;;5115647;28;20486;-72
2021/06/17 10:38:28;;;;;;;14.53;7.03;;;;;;;;;;5096137;28;20670;-72
2021/06/17 10:40:58;;;;;;;12.70;8.20;;;;;;;;;;5112027;28;21018;-71
2021/06/17 10:43:26;;;;;;;7.13;6.40;;;;;;;;;;5116964;28;20458;-71
2021/06/17 10:45:55;;;;;;;13.10;7.67;;;;;;;;;;5098794;28;20466;-71
2021/06/17 10:48:42;;;;;;;9.30;6.83;;;;;;;;;;5107503;28;20722;-71
2021/06/17 10:51:13;;;;;;;12.40;8.60;;;;;;;;;;5110147;28;20447;-71
2021/06/17 10:53:46;;;;;;;9.53;8.63;;;;;;;;;;5117031;28;20450;-71
2021/06/17 10:56:19;;;;;;;7.33;6.37;;;;;;;;;;5117872;28;20870;-71
2021/06/17 10:58:55;;;;;;;8.80;7.90;;;;;;;;;;5117779;28;20823;-70
2021/06/17 11:01:40;;;;;;;6.83;6.23;;;;;;;;;;5117162;28;20439;-71
2021/06/17 11:04:15;;;;;;;7.20;6.50;;;;;;;;;;5116683;28;20850;-71
2021/06/17 11:07:02;;;;;;;8.10;6.10;;;;;;;;;;5118151;28;20478;-72
2021/06/17 11:09:42;;;;;;;11.30;7.90;;;;;;;;;;5116837;28;20461;-71
2021/06/17 11:12:27;;;;;;;6.53;5.40;;;;;;;;;;5116761;28;20906;-71
2021/06/17 11:14:57;;;;;;;7.67;6.10;;;;;;;;;;5116038;28;20450;-71
2021/06/17 11:17:42;;;;;;;7.77;5.97;;;;;;;;;;5114485;28;20477;-71
2021/06/17 11:20:12;;;;;;;8.57;6.30;;;;;;;;;;5117038;28;20447;-71
2021/06/17 11:22:41;;;;;;;7.17;5.90;;;;;;;;;;5116290;28;20497;-71
2021/06/17 11:25:30;;;;;;;8.43;6.10;;;;;;;;;;5116335;28;20455;-71
2021/06/17 11:28:08;;;;;;;7.60;6.87;;;;;;;;;;5098942;28;20521;-71
2021/06/17 11:31:03;;;;;;;6.30;5.20;;;;;;;;;;5115928;28;20450;-70
2021/06/17 11:37:00;;;;;;;6.57;5.33;;;;;;;;;;5099506;28;20588;-70
2021/06/17 11:39:29;;;;;;;5.60;5.10;;;;;;;;;;5116524;28;20458;-71
2021/06/17 11:41:58;;;;;;;7.77;6.40;;;;;;;;;;5110983;28;20440;-71
2021/06/17 11:44:48;;;;;;;6.13;5.53;;;;;;;;;;5098879;27;20446;-71
2021/06/17 11:47:19;;;;;;;6.47;5.80;;;;;;;;;;5109174;27;20454;-73
2021/06/17 11:49:56;;;;;;;8.33;5.00;;;;;;;;;;5101718;28;20553;-72
2021/06/17 11:52:28;;;;;;;6.73;5.60;;;;;;;;;;5095512;28;20484;-73
2021/06/17 11:55:04;;;;;;;7.43;6.23;;;;;;;;;;5106355;28;20517;-72
2021/06/17 11:57:38;;;;;;;8.23;6.00;;;;;;;;;;5102971;28;20857;-72
2021/06/17 12:00:13;;;;;;;7.90;6.07;;;;;;;;;;5098884;28;20566;-72
2021/06/17 12:02:43;;;;;;;5.90;5.20;;;;;;;;;;5108862;28;20453;-73
2021/06/17 12:05:27;;;;;;;7.17;6.47;;;;;;;;;;5115294;28;20461;-72
2021/06/17 12:07:59;;;;;;;5.83;5.13;;;;;;;;;;5106872;28;20519;-71
2021/06/17 12:10:27;;;;;;;5.90;5.10;;;;;;;;;;5099691;28;21120;-72
2021/06/17 12:12:56;;;;;;;9.20;6.33;;;;;;;;;;5112335;28;20474;-71
2021/06/17 12:15:31;;;;;;;6.60;6.00;;;;;;;;;;5108620;28;20462;-71
2021/06/17 12:18:02;;;;;;;6.80;6.20;;;;;;;;;;5107067;28;20645;-71
2021/06/17 12:20:32;;;;;;;6.30;5.70;;;;;;;;;;5094578;28;20730;-70
2021/06/17 12:23:14;;;;;;;8.30;5.30;;;;;;;;;;5097642;28;20550;-71
2021/06/17 12:25:45;;;;;;;6.77;6.07;;;;;;;;;;5107593;28;20898;-70
2021/06/17 12:28:20;;;;;;;6.63;5.60;;;;;;;;;;5098041;28;20837;-70
2021/06/17 12:30:53;;;;;;;6.70;5.87;;;;;;;;;;5104056;28;20442;-71
2021/06/17 12:33:22;;;;;;;7.87;5.43;;;;;;;;;;5107966;28;20848;-71
2021/06/17 12:35:52;;;;;;;6.87;6.27;;;;;;;;;;5098208;28;20464;-70
2021/06/17 12:38:25;;;;;;;6.10;5.20;;;;;;;;;;5114173;28;20458;-71
2021/06/17 12:40:53;;;;;;;5.53;5.03;;;;;;;;;;5113763;28;20455;-70
2021/06/17 12:43:21;;;;;;;5.87;4.43;;;;;;;;;;5114770;28;20450;-70
2021/06/17 12:46:02;;;;;;;5.93;5.30;;;;;;;;;;5114699;28;20474;-70
2021/06/17 12:48:57;;;;;;;6.90;4.67;;;;;;;;;;5114860;28;20460;-70
2021/06/17 12:54:21;;;;;;;7.80;5.80;;;;;;;;;;5115007;28;20506;-69
2021/06/17 12:56:51;;;;;;;6.57;5.97;;;;;;;;;;5110888;28;21082;-70
2021/06/17 12:59:19;;;;;;;7.33;4.50;;;;;;;;;;5108357;28;20461;-70
2021/06/17 13:01:48;;;;;;;9.63;5.73;;;;;;;;;;5113916;28;20434;-70
2021/06/17 13:04:16;;;;;;;5.03;4.50;;;;;;;;;;5114979;28;20446;-70
2021/06/17 13:06:49;;;;;;;5.80;5.30;;;;;;;;;;5108690;28;20515;-71
2021/06/17 13:09:25;;;;;;;6.70;5.37;;;;;;;;;;5114629;28;20519;-71
2021/06/17 13:12:05;;;;;;;5.10;4.70;;;;;;;;;;5115743;28;20456;-71
2021/06/17 13:14:33;;;;;;;5.80;5.07;;;;;;;;;;5113498;28;20447;-71
2021/06/17 13:17:06;;;;;;;5.03;4.37;;;;;;;;;;5113449;28;20795;-71
2021/06/17 13:19:35;;;;;;;6.40;5.30;;;;;;;;;;5093575;28;20508;-71
2021/06/17 13:22:06;;;;;;;8.10;5.83;;;;;;;;;;5094465;28;21064;-70
2021/06/17 13:24:41;;;;;;;5.30;4.07;;;;;;;;;;5094690;28;20455;-71
2021/06/17 13:27:12;;;;;;;5.00;4.40;;;;;;;;;;5094455;28;20465;-71
2021/06/17 13:29:51;;;;;;;9.83;4.27;;;;;;;;;;5110211;28;20473;-71
2021/06/17 13:32:19;;;;;;;4.80;4.30;;;;;;;;;;5115148;28;20473;-70
2021/06/17 13:34:47;;;;;;;5.10;4.60;;;;;;;;;;5110231;28;20444;-71
2021/06/17 13:37:17;;;;;;;5.27;4.77;;;;;;;;;;5113980;28;20454;-70
2021/06/17 13:39:46;;;;;;;5.17;4.70;;;;;;;;;;5115550;28;20455;-70
2021/06/17 13:42:15;;;;;;;4.77;4.27;;;;;;;;;;5113807;28;20443;-71
2021/06/17 13:44:43;;;;;;;6.00;5.20;;;;;;;;;;5113949;28;20491;-70
2021/06/17 13:47:14;;;;;;;5.73;5.20;;;;;;;;;;5118905;28;20571;-71
2021/06/17 13:49:46;;;;;;;5.63;4.80;;;;;;;;;;5119121;28;20466;-70
2021/06/17 13:52:17;;;;;;;5.07;4.57;;;;;;;;;;5117330;28;20550;-71
2021/06/17 13:54:46;;;;;;;10.00;5.00;;;;;;;;;;5098995;28;20474;-71
2021/06/17 13:57:16;;;;;;;4.63;3.80;;;;;;;;;;5112887;28;20900;-70
2021/06/17 13:59:44;;;;;;;6.73;4.13;;;;;;;;;;5117819;28;20459;-74
2021/06/17 14:02:13;;;;;;;11.70;5.03;;;;;;;;;;5121151;28;20455;-70
2021/06/17 14:04:44;;;;;;;5.20;3.80;;;;;;;;;;5118630;28;20866;-70
2021/06/17 14:09:57;;;;;;;5.80;4.50;;;;;;;;;;5115993;28;20624;-70
2021/06/17 14:12:26;;;;;;;4.20;3.80;;;;;;;;;;5118201;28;20482;-69
2021/06/17 14:14:55;;;;;;;6.90;3.83;;;;;;;;;;5127827;27;20445;-71
2021/06/17 14:17:26;;;;;;;8.73;4.43;;;;;;;;;;5119450;28;20458;-72
2021/06/17 14:19:57;;;;;;;6.00;3.97;;;;;;;;;;5117239;28;20455;-71
2021/06/17 14:22:28;;;;;;;6.63;4.60;;;;;;;;;;5097615;28;20452;-71
2021/06/17 14:24:59;;;;;;;7.10;4.20;;;;;;;;;;5100676;28;20734;-70
2021/06/17 14:27:28;;;;;;;5.70;3.97;;;;;;;;;;5112837;28;20472;-71
2021/06/17 14:29:59;;;;;;;4.30;3.43;;;;;;;;;;5117934;28;20489;-70
2021/06/17 14:32:27;;;;;;;7.70;3.90;;;;;;;;;;5114256;28;20772;-71
2021/06/17 14:34:56;;;;;;;6.60;4.10;;;;;;;;;;5115202;28;20738;-71
2021/06/17 14:37:54;;;;;;;4.77;3.87;;;;;;;;;;5117710;28;20455;-71
2021/06/17 14:40:23;;;;;;;4.90;4.50;;;;;;;;;;5117038;28;20780;-71
2021/06/17 14:42:56;;;;;;;8.30;4.57;;;;;;;;;;5117675;28;20435;-71
2021/06/17 14:45:24;;;;;;;7.00;3.60;;;;;;;;;;5116244;28;20949;-71
2021/06/17 14:47:52;;;;;;;4.00;3.40;;;;;;;;;;5116852;28;20447;-71
2021/06/17 14:50:21;;;;;;;5.20;3.80;;;;;;;;;;5114477;28;20463;-71
2021/06/17 14:53:04;;;;;;;5.20;4.57;;;;;;;;;;5113207;28;20489;-71
2021/06/17 14:55:37;;;;;;;3.97;3.57;;;;;;;;;;5110442;28;20600;-71
2021/06/17 14:58:14;;;;;;;5.77;4.37;;;;;;;;;;5108071;28;20537;-70
2021/06/17 15:00:45;;;;;;;6.70;4.73;;;;;;;;;;5117233;28;20442;-73
2021/06/17 15:03:13;;;;;;;4.77;4.20;;;;;;;;;;5117393;28;20439;-71
2021/06/17 15:05:41;;;;;;;7.13;4.30;;;;;;;;;;5102903;28;20444;-69
2021/06/17 15:08:09;;;;;;;3.83;3.43;;;;;;;;;;5097382;28;20716;-71
2021/06/17 15:10:40;;;;;;;4.40;3.67;;;;;;;;;;5107101;28;20534;-71
2021/06/17 15:13:08;;;;;;;4.80;4.30;;;;;;;;;;5116903;28;20517;-70
2021/06/17 15:15:36;;;;;;;4.90;4.40;;;;;;;;;;5115049;28;20458;-70
2021/06/17 15:18:09;;;;;;;5.13;4.63;;;;;;;;;;5116963;28;20454;-70
2021/06/17 15:20:38;;;;;;;6.77;4.50;;;;;;;;;;5117136;28;20806;-70
2021/06/17 15:23:06;;;;;;;9.30;4.10;;;;;;;;;;5111624;28;20898;-71
2021/06/17 15:25:34;;;;;;;4.33;3.83;;;;;;;;;;5097339;28;20982;-70
2021/06/17 15:28:06;;;;;;;4.80;3.30;;;;;;;;;;5111240;28;20463;-71
2021/06/17 15:30:34;;;;;;;4.77;4.20;;;;;;;;;;5115885;28;20454;-70
2021/06/17 15:33:02;;;;;;;3.67;3.30;;;;;;;;;;5116442;28;20492;-70
2021/06/17 15:35:30;;;;;;;4.83;3.07;;;;;;;;;;5116266;28;20783;-70
2021/06/17 15:38:01;;;;;;;7.30;3.87;;;;;;;;;;5115776;28;20736;-70
2021/06/17 15:40:30;;;;;;;4.13;3.57;;;;;;;;;;5116580;28;20482;-70
2021/06/17 15:42:58;;;;;;;4.33;3.83;;;;;;;;;;5097692;28;20516;-70